sensor_id;sensor_type;location;lat;lon;timestamp;pressure;altitude;pressure_sealevel;temperature;humidity
11710;BME280;5911;51.036;6.972;2022-07-04T00:00:32;101155.81;;;20.64;63.78
11710;BME280;5911;51.036;6.972;2022-07-04T00:03:00;101161.91;;;20.58;64.12
11710;BME280;5911;51.036;6.972;2022-07-04T00:05:30;101132.88;;;20.39;64.32
11710;BME280;5911;51.036;6.972;2022-07-04T00:07:57;101155.88;;;20.56;64.13
11710;BME280;5911;51.036;6.972;2022-07-04T00:10:26;101165.28;;;20.52;65.21
11710;BME280;5911;51.036;6.972;2022-07-04T00:12:54;101147.25;;;20.46;64.39
11710;BME280;5911;51.036;6.972;2022-07-04T00:15:24;101161.59;;;20.53;64.36
11710;BME280;5911;51.036;6.972;2022-07-04T00:17:52;101150.78;;;20.38;63.78
11710;BME280;5911;51.036;6.972;2022-07-04T00:20:20;101162.31;;;20.47;65.30
11710;BME280;5911;51.036;6.972;2022-07-04T00:22:49;101160.66;;;20.46;65.17
11710;BME280;5911;51.036;6.972;2022-07-04T00:25:16;101158.97;;;20.45;65.43
11710;BME280;5911;51.036;6.972;2022-07-04T00:27:44;101166.53;;;20.41;65.50
11710;BME280;5911;51.036;6.972;2022-07-04T00:30:13;101161.34;;;20.40;66.08
11710;BME280;5911;51.036;6.972;2022-07-04T00:32:41;101155.63;;;20.34;65.39
11710;BME280;5911;51.036;6.972;2022-07-04T00:35:09;101154.97;;;20.32;66.67
11710;BME280;5911;51.036;6.972;2022-07-04T00:37:37;101156.81;;;20.32;67.71
11710;BME280;5911;51.036;6.972;2022-07-04T00:40:07;101157.63;;;20.32;67.58
11710;BME280;5911;51.036;6.972;2022-07-04T00:42:35;101153.66;;;20.28;66.14
11710;BME280;5911;51.036;6.972;2022-07-04T00:45:03;101150.31;;;20.26;66.29
11710;BME280;5911;51.036;6.972;2022-07-04T00:47:32;101158.34;;;20.26;66.26
11710;BME280;5911;51.036;6.972;2022-07-04T00:49:59;101151.00;;;20.28;66.26
11710;BME280;5911;51.036;6.972;2022-07-04T00:52:28;101140.94;;;20.30;65.38
11710;BME280;5911;51.036;6.972;2022-07-04T00:54:56;101137.59;;;20.28;65.73
11710;BME280;5911;51.036;6.972;2022-07-04T00:57:28;101140.09;;;20.30;65.95
11710;BME280;5911;51.036;6.972;2022-07-04T00:59:56;101137.88;;;20.33;66.51
11710;BME280;5911;51.036;6.972;2022-07-04T01:02:24;101133.22;;;20.27;65.46
11710;BME280;5911;51.036;6.972;2022-07-04T01:04:51;101140.97;;;20.22;65.19
11710;BME280;5911;51.036;6.972;2022-07-04T01:07:20;101137.44;;;20.22;65.54
11710;BME280;5911;51.036;6.972;2022-07-04T01:09:48;101136.59;;;20.21;65.99
11710;BME280;5911;51.036;6.972;2022-07-04T01:12:25;101141.63;;;20.24;66.12
11710;BME280;5911;51.036;6.972;2022-07-04T01:14:54;101138.63;;;20.19;65.92
11710;BME280;5911;51.036;6.972;2022-07-04T01:17:22;101111.44;;;19.99;67.07
11710;BME280;5911;51.036;6.972;2022-07-04T01:19:50;101132.97;;;20.14;66.75
11710;BME280;5911;51.036;6.972;2022-07-04T01:22:20;101136.00;;;20.11;66.22
11710;BME280;5911;51.036;6.972;2022-07-04T01:24:49;101133.16;;;20.05;66.52
11710;BME280;5911;51.036;6.972;2022-07-04T01:27:17;101136.69;;;20.05;66.57
11710;BME280;5911;51.036;6.972;2022-07-04T01:29:45;101135.56;;;19.99;66.63
11710;BME280;5911;51.036;6.972;2022-07-04T01:32:13;101121.34;;;19.91;66.86
11710;BME280;5911;51.036;6.972;2022-07-04T01:34:41;101135.38;;;20.01;66.65
11710;BME280;5911;51.036;6.972;2022-07-04T01:37:10;101132.03;;;19.99;66.49
11710;BME280;5911;51.036;6.972;2022-07-04T01:39:39;101141.06;;;19.98;66.74
11710;BME280;5911;51.036;6.972;2022-07-04T01:42:07;101142.41;;;19.94;67.14
11710;BME280;5911;51.036;6.972;2022-07-04T01:44:36;101143.44;;;19.93;67.44
11710;BME280;5911;51.036;6.972;2022-07-04T01:47:04;101140.09;;;19.91;68.00
11710;BME280;5911;51.036;6.972;2022-07-04T01:49:33;101141.75;;;19.92;68.56
11710;BME280;5911;51.036;6.972;2022-07-04T01:52:00;101147.28;;;19.90;68.47
11710;BME280;5911;51.036;6.972;2022-07-04T01:54:29;101149.84;;;19.84;67.74
11710;BME280;5911;51.036;6.972;2022-07-04T01:56:58;101152.69;;;19.82;69.14
11710;BME280;5911;51.036;6.972;2022-07-04T01:59:26;101153.84;;;19.80;68.36
11710;BME280;5911;51.036;6.972;2022-07-04T02:02:08;101153.84;;;19.80;69.08
11710;BME280;5911;51.036;6.972;2022-07-04T02:04:37;101157.53;;;19.79;69.09
11710;BME280;5911;51.036;6.972;2022-07-04T02:07:05;101157.19;;;19.82;70.31
11710;BME280;5911;51.036;6.972;2022-07-04T02:09:32;101161.88;;;19.72;70.30
11710;BME280;5911;51.036;6.972;2022-07-04T02:12:02;101163.09;;;19.69;69.66
11710;BME280;5911;51.036;6.972;2022-07-04T02:14:47;101162.44;;;19.67;70.58
11710;BME280;5911;51.036;6.972;2022-07-04T02:17:16;101129.13;;;19.45;69.89
11710;BME280;5911;51.036;6.972;2022-07-04T02:19:44;101164.09;;;19.60;70.74
11710;BME280;5911;51.036;6.972;2022-07-04T02:22:12;101163.97;;;19.53;70.45
11710;BME280;5911;51.036;6.972;2022-07-04T02:24:40;101163.59;;;19.48;70.05
11710;BME280;5911;51.036;6.972;2022-07-04T02:27:09;101174.47;;;19.47;71.00
11710;BME280;5911;51.036;6.972;2022-07-04T02:29:39;101172.78;;;19.46;71.85
11710;BME280;5911;51.036;6.972;2022-07-04T02:32:08;101178.31;;;19.44;71.82
11710;BME280;5911;51.036;6.972;2022-07-04T02:34:36;101168.47;;;19.37;71.63
11710;BME280;5911;51.036;6.972;2022-07-04T02:37:04;101175.50;;;19.38;72.78
11710;BME280;5911;51.036;6.972;2022-07-04T02:39:32;101171.97;;;19.29;72.87
11710;BME280;5911;51.036;6.972;2022-07-04T02:42:00;101173.28;;;19.25;73.50
11710;BME280;5911;51.036;6.972;2022-07-04T02:44:29;101169.63;;;19.18;74.90
11710;BME280;5911;51.036;6.972;2022-07-04T02:46:57;101176.31;;;19.14;75.00
11710;BME280;5911;51.036;6.972;2022-07-04T02:49:26;101174.31;;;19.08;75.67
11710;BME280;5911;51.036;6.972;2022-07-04T02:51:55;101188.53;;;19.16;75.85
11710;BME280;5911;51.036;6.972;2022-07-04T02:54:22;101182.84;;;19.11;75.75
11710;BME280;5911;51.036;6.972;2022-07-04T02:56:50;101186.03;;;19.07;75.95
11710;BME280;5911;51.036;6.972;2022-07-04T02:59:18;101182.69;;;19.05;75.86
11710;BME280;5911;51.036;6.972;2022-07-04T03:01:47;101188.50;;;19.00;75.85
11710;BME280;5911;51.036;6.972;2022-07-04T03:04:15;101184.50;;;19.04;76.69
11710;BME280;5911;51.036;6.972;2022-07-04T03:06:43;101194.38;;;19.04;76.27
11710;BME280;5911;51.036;6.972;2022-07-04T03:09:11;101205.03;;;18.95;76.68
11710;BME280;5911;51.036;6.972;2022-07-04T03:11:39;101208.06;;;18.92;77.27
11710;BME280;5911;51.036;6.972;2022-07-04T03:14:06;101207.41;;;18.90;77.63
11710;BME280;5911;51.036;6.972;2022-07-04T03:16:34;101210.41;;;18.87;77.72
11710;BME280;5911;51.036;6.972;2022-07-04T03:19:04;101219.25;;;18.88;77.25
11710;BME280;5911;51.036;6.972;2022-07-04T03:21:32;101226.09;;;18.82;78.07
11710;BME280;5911;51.036;6.972;2022-07-04T03:24:00;101222.25;;;18.85;78.37
11710;BME280;5911;51.036;6.972;2022-07-04T03:26:29;101229.44;;;18.84;77.71
11710;BME280;5911;51.036;6.972;2022-07-04T03:28:59;101225.09;;;18.83;78.12
11710;BME280;5911;51.036;6.972;2022-07-04T03:31:28;101232.44;;;18.81;78.22
11710;BME280;5911;51.036;6.972;2022-07-04T03:33:56;101235.09;;;18.81;78.08
11710;BME280;5911;51.036;6.972;2022-07-04T03:36:25;101225.72;;;18.69;78.59
11710;BME280;5911;51.036;6.972;2022-07-04T03:38:53;101234.63;;;18.78;78.46
11710;BME280;5911;51.036;6.972;2022-07-04T03:41:21;101239.44;;;18.82;78.89
11710;BME280;5911;51.036;6.972;2022-07-04T03:43:49;101236.59;;;18.76;78.84
11710;BME280;5911;51.036;6.972;2022-07-04T03:46:17;101247.78;;;18.71;78.40
11710;BME280;5911;51.036;6.972;2022-07-04T03:48:45;101243.59;;;18.69;79.04
11710;BME280;5911;51.036;6.972;2022-07-04T03:51:12;101243.91;;;18.66;79.54
11710;BME280;5911;51.036;6.972;2022-07-04T03:53:42;101242.75;;;18.68;80.20
11710;BME280;5911;51.036;6.972;2022-07-04T03:56:10;101243.41;;;18.62;80.07
11710;BME280;5911;51.036;6.972;2022-07-04T03:58:38;101252.44;;;18.61;80.56
11710;BME280;5911;51.036;6.972;2022-07-04T04:01:05;101244.41;;;18.61;80.24
11710;BME280;5911;51.036;6.972;2022-07-04T04:03:33;101250.75;;;18.60;80.86
11710;BME280;5911;51.036;6.972;2022-07-04T04:06:19;101244.03;;;18.56;80.96
11710;BME280;5911;51.036;6.972;2022-07-04T04:08:48;101241.75;;;18.61;82.02
11710;BME280;5911;51.036;6.972;2022-07-04T04:11:16;101242.03;;;18.58;81.80
11710;BME280;5911;51.036;6.972;2022-07-04T04:13:44;101247.69;;;18.55;81.62
11710;BME280;5911;51.036;6.972;2022-07-04T04:16:12;101247.00;;;18.53;82.12
11710;BME280;5911;51.036;6.972;2022-07-04T04:18:39;101242.03;;;18.58;83.05
11710;BME280;5911;51.036;6.972;2022-07-04T04:21:07;101245.59;;;18.67;83.38
11710;BME280;5911;51.036;6.972;2022-07-04T04:23:35;101237.91;;;18.64;82.85
11710;BME280;5911;51.036;6.972;2022-07-04T04:26:04;101239.09;;;18.69;83.56
11710;BME280;5911;51.036;6.972;2022-07-04T04:28:32;101233.09;;;18.75;84.18
11710;BME280;5911;51.036;6.972;2022-07-04T04:31:00;101239.44;;;18.74;83.57
11710;BME280;5911;51.036;6.972;2022-07-04T04:33:28;101234.78;;;18.76;84.40
11710;BME280;5911;51.036;6.972;2022-07-04T04:35:56;101237.09;;;18.71;83.84
11710;BME280;5911;51.036;6.972;2022-07-04T04:38:24;101247.47;;;18.74;84.41
11710;BME280;5911;51.036;6.972;2022-07-04T04:40:51;101236.41;;;18.69;84.80
11710;BME280;5911;51.036;6.972;2022-07-04T04:43:21;101243.78;;;18.75;83.90
11710;BME280;5911;51.036;6.972;2022-07-04T04:45:48;101246.78;;;18.80;83.34
11710;BME280;5911;51.036;6.972;2022-07-04T04:48:16;101251.81;;;18.83;81.60
11710;BME280;5911;51.036;6.972;2022-07-04T04:50:44;101239.13;;;18.77;81.79
11710;BME280;5911;51.036;6.972;2022-07-04T04:53:12;101252.34;;;18.95;80.65
11710;BME280;5911;51.036;6.972;2022-07-04T04:55:40;101253.84;;;18.97;79.74
11710;BME280;5911;51.036;6.972;2022-07-04T04:58:08;101246.81;;;18.96;80.89
11710;BME280;5911;51.036;6.972;2022-07-04T05:00:37;101247.84;;;19.04;80.60
11710;BME280;5911;51.036;6.972;2022-07-04T05:03:25;101252.19;;;18.96;81.53
11710;BME280;5911;51.036;6.972;2022-07-04T05:05:53;101246.19;;;19.03;81.12
11710;BME280;5911;51.036;6.972;2022-07-04T05:08:20;101246.69;;;19.06;80.95
11710;BME280;5911;51.036;6.972;2022-07-04T05:10:51;101245.34;;;19.10;80.82
11710;BME280;5911;51.036;6.972;2022-07-04T05:13:19;101249.53;;;19.05;81.88
11710;BME280;5911;51.036;6.972;2022-07-04T05:15:48;101253.72;;;19.07;82.32
11710;BME280;5911;51.036;6.972;2022-07-04T05:18:16;101237.13;;;18.95;81.97
11710;BME280;5911;51.036;6.972;2022-07-04T05:20:44;101250.88;;;19.09;82.94
11710;BME280;5911;51.036;6.972;2022-07-04T05:23:12;101246.84;;;19.13;84.57
11710;BME280;5911;51.036;6.972;2022-07-04T05:25:40;101247.84;;;19.12;86.13
11710;BME280;5911;51.036;6.972;2022-07-04T05:28:11;101250.53;;;19.12;84.42
11710;BME280;5911;51.036;6.972;2022-07-04T05:30:39;101250.22;;;19.15;85.62
11710;BME280;5911;51.036;6.972;2022-07-04T05:33:10;101256.41;;;19.15;85.53
11710;BME280;5911;51.036;6.972;2022-07-04T05:35:38;101246.72;;;19.22;86.63
11710;BME280;5911;51.036;6.972;2022-07-04T05:38:06;101252.91;;;19.23;86.27
11710;BME280;5911;51.036;6.972;2022-07-04T05:40:34;101247.56;;;19.23;88.06
11710;BME280;5911;51.036;6.972;2022-07-04T05:43:02;101259.25;;;19.22;86.79
11710;BME280;5911;51.036;6.972;2022-07-04T05:45:30;101258.41;;;19.29;87.74
11710;BME280;5911;51.036;6.972;2022-07-04T05:47:57;101246.56;;;19.32;86.51
11710;BME280;5911;51.036;6.972;2022-07-04T05:50:27;101252.09;;;19.39;87.04
11710;BME280;5911;51.036;6.972;2022-07-04T05:52:58;101253.41;;;19.43;86.90
11710;BME280;5911;51.036;6.972;2022-07-04T05:55:26;101255.91;;;19.44;87.46
11710;BME280;5911;51.036;6.972;2022-07-04T05:57:54;101256.75;;;19.45;86.10
11710;BME280;5911;51.036;6.972;2022-07-04T06:00:22;101257.13;;;19.50;86.30
11710;BME280;5911;51.036;6.972;2022-07-04T06:02:51;101266.84;;;19.51;83.94
11710;BME280;5911;51.036;6.972;2022-07-04T06:05:19;101269.34;;;19.52;85.46
11710;BME280;5911;51.036;6.972;2022-07-04T06:07:49;101261.00;;;19.55;85.52
11710;BME280;5911;51.036;6.972;2022-07-04T06:10:17;101266.16;;;19.57;85.80
11710;BME280;5911;51.036;6.972;2022-07-04T06:12:44;101259.94;;;19.56;85.18
11710;BME280;5911;51.036;6.972;2022-07-04T06:15:12;101251.44;;;19.61;84.86
11710;BME280;5911;51.036;6.972;2022-07-04T06:17:44;101232.19;;;19.49;86.46
11710;BME280;5911;51.036;6.972;2022-07-04T06:20:12;101252.78;;;19.65;84.04
11710;BME280;5911;51.036;6.972;2022-07-04T06:22:40;101255.78;;;19.70;83.32
11710;BME280;5911;51.036;6.972;2022-07-04T06:25:12;101249.22;;;19.73;83.49
11710;BME280;5911;51.036;6.972;2022-07-04T06:27:40;101230.84;;;19.61;83.47
11710;BME280;5911;51.036;6.972;2022-07-04T06:30:12;101240.19;;;19.74;84.58
11710;BME280;5911;51.036;6.972;2022-07-04T06:32:42;101231.84;;;19.77;84.97
11710;BME280;5911;51.036;6.972;2022-07-04T06:35:10;101244.88;;;19.80;83.91
11710;BME280;5911;51.036;6.972;2022-07-04T06:37:56;101245.22;;;19.77;83.34
11710;BME280;5911;51.036;6.972;2022-07-04T06:40:25;101244.56;;;19.83;81.67
11710;BME280;5911;51.036;6.972;2022-07-04T06:42:53;101253.91;;;19.87;82.29
11710;BME280;5911;51.036;6.972;2022-07-04T06:45:21;101251.22;;;19.87;80.96
11710;BME280;5911;51.036;6.972;2022-07-04T06:47:48;101253.41;;;19.91;80.80
11710;BME280;5911;51.036;6.972;2022-07-04T06:50:16;101256.75;;;19.93;81.44
11710;BME280;5911;51.036;6.972;2022-07-04T06:53:06;101254.75;;;19.95;80.61
11710;BME280;5911;51.036;6.972;2022-07-04T06:55:35;101259.94;;;19.97;81.01
11710;BME280;5911;51.036;6.972;2022-07-04T06:58:04;101259.59;;;20.00;79.17
11710;BME280;5911;51.036;6.972;2022-07-04T07:00:33;101263.28;;;19.99;79.96
11710;BME280;5911;51.036;6.972;2022-07-04T07:03:01;101251.03;;;20.05;78.03
11710;BME280;5911;51.036;6.972;2022-07-04T07:05:30;101254.72;;;20.03;77.73
11710;BME280;5911;51.036;6.972;2022-07-04T07:08:18;101247.84;;;20.09;76.95
11710;BME280;5911;51.036;6.972;2022-07-04T07:10:47;101249.50;;;20.10;76.61
11710;BME280;5911;51.036;6.972;2022-07-04T07:13:15;101228.47;;;19.99;74.75
11710;BME280;5911;51.036;6.972;2022-07-04T07:15:43;101256.03;;;20.16;73.76
11710;BME280;5911;51.036;6.972;2022-07-04T07:18:11;101247.34;;;20.14;72.95
11710;BME280;5911;51.036;6.972;2022-07-04T07:20:38;101247.81;;;20.17;73.84
11710;BME280;5911;51.036;6.972;2022-07-04T07:23:06;101250.00;;;20.14;73.04
11710;BME280;5911;51.036;6.972;2022-07-04T07:25:34;101256.88;;;20.16;71.02
11710;BME280;5911;51.036;6.972;2022-07-04T07:28:04;101250.19;;;20.12;67.07
11710;BME280;5911;51.036;6.972;2022-07-04T07:30:31;101246.50;;;20.13;67.96
11710;BME280;5911;51.036;6.972;2022-07-04T07:33:00;101241.81;;;20.15;67.88
11710;BME280;5911;51.036;6.972;2022-07-04T07:35:27;101241.13;;;20.13;67.37
11710;BME280;5911;51.036;6.972;2022-07-04T07:37:55;101245.13;;;20.17;65.48
11710;BME280;5911;51.036;6.972;2022-07-04T07:40:23;101250.81;;;20.22;65.22
11710;BME280;5911;51.036;6.972;2022-07-04T07:42:51;101237.25;;;20.24;67.10
11710;BME280;5911;51.036;6.972;2022-07-04T07:45:22;101243.09;;;20.27;65.47
11710;BME280;5911;51.036;6.972;2022-07-04T07:47:50;101246.44;;;20.29;65.26
11710;BME280;5911;51.036;6.972;2022-07-04T07:50:18;101251.97;;;20.36;66.28
11710;BME280;5911;51.036;6.972;2022-07-04T07:52:46;101248.44;;;20.44;66.61
11710;BME280;5911;51.036;6.972;2022-07-04T07:55:14;101245.91;;;20.42;65.54
11710;BME280;5911;51.036;6.972;2022-07-04T07:57:42;101251.28;;;20.42;64.48
11710;BME280;5911;51.036;6.972;2022-07-04T08:00:14;101251.63;;;20.39;65.39
11710;BME280;5911;51.036;6.972;2022-07-04T08:03:04;101246.09;;;20.41;65.17
11710;BME280;5911;51.036;6.972;2022-07-04T08:05:50;101251.09;;;20.35;62.37
11710;BME280;5911;51.036;6.972;2022-07-04T08:08:18;101251.09;;;20.35;60.94
11710;BME280;5911;51.036;6.972;2022-07-04T08:10:49;101209.47;;;20.17;59.47
11710;BME280;5911;51.036;6.972;2022-07-04T08:13:17;101257.13;;;20.46;58.43
11710;BME280;5911;51.036;6.972;2022-07-04T08:15:44;101265.81;;;20.48;57.74
11710;BME280;5911;51.036;6.972;2022-07-04T08:18:14;101245.56;;;20.45;58.07
11710;BME280;5911;51.036;6.972;2022-07-04T08:20:43;101257.44;;;20.51;59.06
11710;BME280;5911;51.036;6.972;2022-07-04T08:23:27;101246.72;;;20.51;58.87
11710;BME280;5911;51.036;6.972;2022-07-04T08:25:56;101250.41;;;20.50;59.58
11710;BME280;5911;51.036;6.972;2022-07-04T08:28:24;101258.25;;;20.59;60.56
11710;BME280;5911;51.036;6.972;2022-07-04T08:30:52;101256.41;;;20.60;61.59
11710;BME280;5911;51.036;6.972;2022-07-04T08:33:21;101262.22;;;20.63;61.22
11710;BME280;5911;51.036;6.972;2022-07-04T08:35:49;101261.22;;;20.64;62.57
11710;BME280;5911;51.036;6.972;2022-07-04T08:38:17;101258.19;;;20.67;63.15
11710;BME280;5911;51.036;6.972;2022-07-04T08:40:45;101261.72;;;20.68;61.11
11710;BME280;5911;51.036;6.972;2022-07-04T08:43:14;101266.38;;;20.74;60.78
11710;BME280;5911;51.036;6.972;2022-07-04T08:45:45;101261.03;;;20.74;59.72
11710;BME280;5911;51.036;6.972;2022-07-04T08:48:38;101256.16;;;20.78;56.11
11710;BME280;5911;51.036;6.972;2022-07-04T08:51:13;101262.47;;;20.85;56.52
11710;BME280;5911;51.036;6.972;2022-07-04T08:53:48;101258.94;;;20.84;56.32
11710;BME280;5911;51.036;6.972;2022-07-04T08:56:19;101258.28;;;20.82;55.73
11710;BME280;5911;51.036;6.972;2022-07-04T08:59:05;101253.25;;;20.79;54.54
11710;BME280;5911;51.036;6.972;2022-07-04T09:01:33;101252.91;;;20.82;54.61
11710;BME280;5911;51.036;6.972;2022-07-04T09:04:04;101247.38;;;20.84;53.74
11710;BME280;5911;51.036;6.972;2022-07-04T09:06:32;101255.75;;;20.89;55.47
11710;BME280;5911;51.036;6.972;2022-07-04T09:09:00;101258.44;;;20.89;55.38
11710;BME280;5911;51.036;6.972;2022-07-04T09:11:27;101254.91;;;20.88;55.51
11710;BME280;5911;51.036;6.972;2022-07-04T09:13:56;101257.25;;;20.91;56.91
11710;BME280;5911;51.036;6.972;2022-07-04T09:16:24;101260.22;;;20.96;56.55
11710;BME280;5911;51.036;6.972;2022-07-04T09:18:53;101258.53;;;20.95;55.52
11710;BME280;5911;51.036;6.972;2022-07-04T09:21:42;101260.34;;;21.03;53.85
11710;BME280;5911;51.036;6.972;2022-07-04T09:24:10;101266.19;;;21.06;55.22
11710;BME280;5911;51.036;6.972;2022-07-04T09:26:40;101227.59;;;20.85;54.57
11710;BME280;5911;51.036;6.972;2022-07-04T09:29:08;101263.22;;;21.01;56.50
11710;BME280;5911;51.036;6.972;2022-07-04T09:31:38;101247.09;;;21.01;55.01
11710;BME280;5911;51.036;6.972;2022-07-04T09:34:07;101249.47;;;20.96;56.60
11710;BME280;5911;51.036;6.972;2022-07-04T09:36:39;101240.91;;;21.01;57.22
11710;BME280;5911;51.036;6.972;2022-07-04T09:39:10;101239.81;;;21.10;56.01
11710;BME280;5911;51.036;6.972;2022-07-04T09:44:29;101237.69;;;21.05;54.28
11710;BME280;5911;51.036;6.972;2022-07-04T09:47:19;101234.47;;;21.10;54.29
11710;BME280;5911;51.036;6.972;2022-07-04T09:49:58;101241.97;;;21.15;53.43
11710;BME280;5911;51.036;6.972;2022-07-04T09:52:27;101239.66;;;21.20;54.46
11710;BME280;5911;51.036;6.972;2022-07-04T09:54:57;101238.91;;;21.26;53.64
11710;BME280;5911;51.036;6.972;2022-07-04T09:57:26;101236.53;;;21.31;52.80
11710;BME280;5911;51.036;6.972;2022-07-04T09:59:55;101237.00;;;21.34;52.62
11710;BME280;5911;51.036;6.972;2022-07-04T10:02:23;101248.22;;;21.38;52.28
11710;BME280;5911;51.036;6.972;2022-07-04T10:04:52;101233.75;;;21.39;52.60
11710;BME280;5911;51.036;6.972;2022-07-04T10:07:35;101238.78;;;21.42;54.09
11710;BME280;5911;51.036;6.972;2022-07-04T10:10:23;101239.25;;;21.46;53.54
11710;BME280;5911;51.036;6.972;2022-07-04T10:12:52;101227.69;;;21.45;53.39
11710;BME280;5911;51.036;6.972;2022-07-04T10:15:21;101231.22;;;21.46;53.47
11710;BME280;5911;51.036;6.972;2022-07-04T10:17:49;101227.03;;;21.43;53.12
11710;BME280;5911;51.036;6.972;2022-07-04T10:20:17;101228.34;;;21.47;51.46
11710;BME280;5911;51.036;6.972;2022-07-04T10:22:47;101224.56;;;21.56;52.61
11710;BME280;5911;51.036;6.972;2022-07-04T10:25:15;101217.50;;;21.55;53.18
11710;BME280;5911;51.036;6.972;2022-07-04T10:27:44;101192.31;;;21.41;53.28
11710;BME280;5911;51.036;6.972;2022-07-04T10:30:14;101219.31;;;21.63;53.60
11710;BME280;5911;51.036;6.972;2022-07-04T10:32:44;101222.00;;;21.77;55.59
11710;BME280;5911;51.036;6.972;2022-07-04T10:35:14;101224.16;;;21.82;53.85
11710;BME280;5911;51.036;6.972;2022-07-04T10:38:04;101213.41;;;21.82;52.97
11710;BME280;5911;51.036;6.972;2022-07-04T10:40:45;101203.69;;;21.96;54.76
11710;BME280;5911;51.036;6.972;2022-07-04T10:43:50;101201.28;;;22.01;52.86
11710;BME280;5911;51.036;6.972;2022-07-04T10:46:23;101202.34;;;22.15;54.01
11710;BME280;5911;51.036;6.972;2022-07-04T10:48:52;101194.31;;;22.36;54.29
11710;BME280;5911;51.036;6.972;2022-07-04T10:51:39;101204.63;;;22.68;52.27
11710;BME280;5911;51.036;6.972;2022-07-04T10:54:12;101208.47;;;23.17;49.96
11710;BME280;5911;51.036;6.972;2022-07-04T10:56:45;101208.94;;;23.69;48.86
11710;BME280;5911;51.036;6.972;2022-07-04T10:59:16;101199.84;;;24.05;48.01
11710;BME280;5911;51.036;6.972;2022-07-04T11:01:50;101195.09;;;24.48;49.40
11710;BME280;5911;51.036;6.972;2022-07-04T11:04:48;101214.31;;;24.93;48.79
11710;BME280;5911;51.036;6.972;2022-07-04T11:07:17;101200.88;;;25.12;46.76
11710;BME280;5911;51.036;6.972;2022-07-04T11:10:19;101201.09;;;25.37;45.89
11710;BME280;5911;51.036;6.972;2022-07-04T11:13:14;101205.50;;;25.65;45.77
11710;BME280;5911;51.036;6.972;2022-07-04T11:16:01;101200.00;;;25.98;45.18
11710;BME280;5911;51.036;6.972;2022-07-04T11:18:30;101188.75;;;26.07;44.67
11710;BME280;5911;51.036;6.972;2022-07-04T11:21:15;101188.25;;;26.37;45.15
11710;BME280;5911;51.036;6.972;2022-07-04T11:23:49;101197.56;;;26.54;44.76
11710;BME280;5911;51.036;6.972;2022-07-04T11:26:19;101199.22;;;26.55;43.58
11710;BME280;5911;51.036;6.972;2022-07-04T11:28:47;101205.09;;;26.83;43.09
11710;BME280;5911;51.036;6.972;2022-07-04T11:31:15;101179.41;;;26.10;42.58
11710;BME280;5911;51.036;6.972;2022-07-04T11:33:45;101195.69;;;25.77;44.42
11710;BME280;5911;51.036;6.972;2022-07-04T11:36:15;101198.44;;;26.41;44.23
11710;BME280;5911;51.036;6.972;2022-07-04T11:38:53;101198.94;;;26.70;42.88
11710;BME280;5911;51.036;6.972;2022-07-04T11:41:25;101206.25;;;27.01;42.14
11710;BME280;5911;51.036;6.972;2022-07-04T11:44:12;101199.09;;;27.13;41.84
11710;BME280;5911;51.036;6.972;2022-07-04T11:47:03;101204.69;;;27.43;42.08
11710;BME280;5911;51.036;6.972;2022-07-04T11:49:31;101214.56;;;27.55;40.37
11710;BME280;5911;51.036;6.972;2022-07-04T11:51:59;101212.00;;;27.67;39.77
11710;BME280;5911;51.036;6.972;2022-07-04T11:54:27;101204.03;;;27.72;39.28
11710;BME280;5911;51.036;6.972;2022-07-04T11:57:18;101206.38;;;27.87;39.21
11710;BME280;5911;51.036;6.972;2022-07-04T11:59:57;101201.41;;;27.84;37.91
11710;BME280;5911;51.036;6.972;2022-07-04T12:02:27;101197.72;;;27.96;39.01
11710;BME280;5911;51.036;6.972;2022-07-04T12:04:55;101187.78;;;28.09;39.85
11710;BME280;5911;51.036;6.972;2022-07-04T12:07:26;101191.41;;;28.39;40.78
11710;BME280;5911;51.036;6.972;2022-07-04T12:09:55;101188.25;;;28.72;41.42
11710;BME280;5911;51.036;6.972;2022-07-04T12:12:25;101192.84;;;28.72;38.12
11710;BME280;5911;51.036;6.972;2022-07-04T12:14:57;101161.03;;;28.60;37.98
11710;BME280;5911;51.036;6.972;2022-07-04T12:17:31;101192.19;;;28.88;38.37
11710;BME280;5911;51.036;6.972;2022-07-04T12:20:00;101178.88;;;28.56;37.13
11710;BME280;5911;51.036;6.972;2022-07-04T12:22:35;101183.19;;;28.27;38.11
11710;BME280;5911;51.036;6.972;2022-07-04T12:25:05;101180.22;;;28.47;37.19
11710;BME280;5911;51.036;6.972;2022-07-04T12:27:35;101172.28;;;28.76;36.08
11710;BME280;5911;51.036;6.972;2022-07-04T12:30:04;101174.22;;;28.27;36.98
11710;BME280;5911;51.036;6.972;2022-07-04T12:32:48;101178.88;;;28.56;38.21
11710;BME280;5911;51.036;6.972;2022-07-04T12:35:50;101180.19;;;28.95;36.96
11710;BME280;5911;51.036;6.972;2022-07-04T12:38:20;101181.25;;;28.94;35.06
11710;BME280;5911;51.036;6.972;2022-07-04T12:40:54;101173.94;;;28.95;34.76
11710;BME280;5911;51.036;6.972;2022-07-04T12:43:25;101169.69;;;28.99;35.74
11710;BME280;5911;51.036;6.972;2022-07-04T12:45:54;101164.75;;;29.19;36.05
11710;BME280;5911;51.036;6.972;2022-07-04T12:48:26;101163.81;;;29.37;36.14
11710;BME280;5911;51.036;6.972;2022-07-04T12:50:55;101163.81;;;29.25;37.22
11710;BME280;5911;51.036;6.972;2022-07-04T12:53:36;101156.38;;;28.19;37.06
11710;BME280;5911;51.036;6.972;2022-07-04T12:56:04;101167.41;;;27.63;38.21
11710;BME280;5911;51.036;6.972;2022-07-04T12:58:33;101160.84;;;27.27;39.41
11710;BME280;5911;51.036;6.972;2022-07-04T13:01:01;101162.53;;;26.90;38.58
11710;BME280;5911;51.036;6.972;2022-07-04T13:03:29;101160.44;;;26.99;39.82
11710;BME280;5911;51.036;6.972;2022-07-04T13:05:57;101149.81;;;26.91;39.63
11710;BME280;5911;51.036;6.972;2022-07-04T13:08:25;101155.84;;;27.00;40.09
11710;BME280;5911;51.036;6.972;2022-07-04T13:10:53;101151.88;;;26.64;40.44
11710;BME280;5911;51.036;6.972;2022-07-04T13:13:42;101146.63;;;26.38;41.71
11710;BME280;5911;51.036;6.972;2022-07-04T13:16:10;101141.63;;;26.28;42.95
11710;BME280;5911;51.036;6.972;2022-07-04T13:18:44;101146.94;;;26.10;42.55
11710;BME280;5911;51.036;6.972;2022-07-04T13:21:12;101143.47;;;25.96;42.96